Terminal Aerodrome Forecast
Issued by NWS

Home | Current Version | Previous Version | Text Only | Print | Product List | Glossary On
Versions: 1 2 3 4 5 6 7 8 9 10 11 12 13 14 15 16 17 18 19 20 21 22 23 24 25
000
FTUS46 KOTX 051125
TAFCOE
TAF
KCOE 051125Z 0512/0612 03015G22KT P6SM SCT100
     FM051400 02020G30KT P6SM FEW050 BKN100
     FM051800 03017G24KT P6SM FEW050 SCT100
     FM060300 05012KT P6SM SKC
      AMD LTD TO CLD AND VIS=

USA.gov is the U.S. government's official web portal to all federal, state and local government web resources and services.